Time;durP1;ratioP1;P1;durP2;ratioP2;P2;SDS_P1;SDS_P2;PMS_P1;PMS_P2;Temp;Humidity;BMP_temperature;BMP_pressure;BME280_temperature;BME280_humidity;BME280_pressure;Samples;Min_cycle;Max_cycle;Signal;HPM_P1;HPM_P2
2023/09/13 00:37:09;;;;;;;;;;;;;;;;;;6187491;22;19931;-87
2023/09/13 00:39:35;;;;;;;;;;;;;;;;;;6154785;23;19904;-87
2023/09/13 00:42:01;;;;;;;;;;;;;;;;;;6153767;23;20338;-88
2023/09/13 00:44:27;;;;;;;;;;;;;;;;;;6179988;23;19900;-89
2023/09/13 00:46:53;;;;;;;;;;;;;;;;;;6152552;23;19931;-88
2023/09/13 00:49:19;;;;;;;;;;;;;;;;;;6155559;23;19975;-87
2023/09/13 00:51:45;;;;;;;;;;;;;;;;;;6153763;23;19936;-87
2023/09/13 00:54:17;;;;;;;;;;;;;;;;;;6154202;23;19985;-88
2023/09/13 00:56:43;;;;;;;;;;;;;;;;;;6180162;23;19944;-87
2023/09/13 00:59:09;;;;;;;;;;;;;;;;;;6154134;23;20391;-87
2023/09/13 01:01:35;;;;;;;;;;;;;;;;;;6152839;23;19904;-88
2023/09/13 01:04:02;;;;;;;;;;;;;;;;;;6153071;23;19911;-87
2023/09/13 01:06:28;;;;;;;;;;;;;;;;;;6180865;23;19987;-88
2023/09/13 01:08:54;;;;;;;;;;;;;;;;;;6153484;23;19940;-87
2023/09/13 01:11:29;;;;;;;;;;;;;;;;;;6153393;23;19913;-87
2023/09/13 01:13:55;;;;;;;;;;;;;;;;;;6178527;23;20298;-87
2023/09/13 01:16:21;;;;;;;;;;;;;;;;;;6153117;23;20451;-87
2023/09/13 01:18:47;;;;;;;;;;;;;;;;;;6181218;23;19928;-88
2023/09/13 01:21:12;;;;;;;;;;;;;;;;;;6155465;23;19904;-88
2023/09/13 01:23:38;;;;;;;;;;;;;;;;;;6181522;23;19904;-88
2023/09/13 01:26:04;;;;;;;;;;;;;;;;;;6155603;23;19939;-89
2023/09/13 01:28:30;;;;;;;;;;;;;;;;;;6180998;23;19912;-88
2023/09/13 01:30:56;;;;;;;;;;;;;;;;;;6154564;23;20213;-87
2023/09/13 01:33:22;;;;;;;;;;;;;;;;;;6180771;23;19904;-88
2023/09/13 01:35:48;;;;;;;;;;;;;;;;;;6156583;22;19919;-87
2023/09/13 01:38:14;;;;;;;;;;;;;;;;;;6154163;23;19912;-88
2023/09/13 01:40:40;;;;;;;;;;;;;;;;;;6155059;23;19979;-89
2023/09/13 01:43:06;;;;;;;;;;;;;;;;;;6154241;23;19943;-88
2023/09/13 01:45:32;;;;;;;;;;;;;;;;;;6153349;23;20451;-87
2023/09/13 01:47:58;;;;;;;;;;;;;;;;;;6179916;23;20290;-87
2023/09/13 01:50:24;;;;;;;;;;;;;;;;;;6153991;23;19908;-88
2023/09/13 01:52:50;;;;;;;;;;;;;;;;;;6155058;23;19912;-88
2023/09/13 01:55:16;;;;;;;;;;;;;;;;;;6154319;23;19948;-88
2023/09/13 01:57:42;;;;;;;;;;;;;;;;;;6153728;23;19987;-89
2023/09/13 02:00:08;;;;;;;;;;;;;;;;;;6180089;23;19912;-88
2023/09/13 02:02:34;;;;;;;;;;;;;;;;;;6152932;23;20220;-88
2023/09/13 02:05:00;;;;;;;;;;;;;;;;;;6153584;23;19912;-88
2023/09/13 02:07:26;;;;;;;;;;;;;;;;;;6180990;23;19951;-88
2023/09/13 02:09:53;;;;;;;;;;;;;;;;;;6153209;23;19909;-88
2023/09/13 02:12:19;;;;;;;;;;;;;;;;;;6154985;23;19904;-89
2023/09/13 02:14:45;;;;;;;;;;;;;;;;;;6180509;23;20315;-88
2023/09/13 02:17:11;;;;;;;;;;;;;;;;;;6153050;23;19915;-88
2023/09/13 02:19:37;;;;;;;;;;;;;;;;;;6155257;23;19908;-88
2023/09/13 02:22:03;;;;;;;;;;;;;;;;;;6180715;23;19947;-88
2023/09/13 02:24:29;;;;;;;;;;;;;;;;;;6155080;23;19905;-88
2023/09/13 02:26:55;;;;;;;;;;;;;;;;;;6180582;23;19972;-87
2023/09/13 02:29:21;;;;;;;;;;;;;;;;;;6153855;23;20353;-88
2023/09/13 02:31:47;;;;;;;;;;;;;;;;;;6154402;23;19904;-88
2023/09/13 02:34:13;;;;;;;;;;;;;;;;;;6154637;23;19916;-88
2023/09/13 02:36:39;;;;;;;;;;;;;;;;;;6155935;23;19917;-89
2023/09/13 02:39:05;;;;;;;;;;;;;;;;;;6152644;23;19911;-89
2023/09/13 02:41:31;;;;;;;;;;;;;;;;;;6154301;23;19931;-88
2023/09/13 02:44:03;;;;;;;;;;;;;;;;;;6153230;23;19912;-89
2023/09/13 02:46:30;;;;;;;;;;;;;;;;;;6154376;23;19947;-89
2023/09/13 02:48:56;;;;;;;;;;;;;;;;;;6154035;23;20437;-88
2023/09/13 02:51:22;;;;;;;;;;;;;;;;;;6153982;23;19951;-88
2023/09/13 02:53:48;;;;;;;;;;;;;;;;;;6180872;23;19936;-88
2023/09/13 02:56:14;;;;;;;;;;;;;;;;;;6153429;23;19908;-89
2023/09/13 02:58:41;;;;;;;;;;;;;;;;;;6153772;23;19940;-89
2023/09/13 03:01:07;;;;;;;;;;;;;;;;;;6154510;23;19904;-89
2023/09/13 03:03:33;;;;;;;;;;;;;;;;;;6180926;23;19958;-89
2023/09/13 03:05:59;;;;;;;;;;;;;;;;;;6155178;23;20235;-88
2023/09/13 03:08:25;;;;;;;;;;;;;;;;;;6153466;23;19908;-89
2023/09/13 03:10:51;;;;;;;;;;;;;;;;;;6182127;23;19908;-89
2023/09/13 03:13:17;;;;;;;;;;;;;;;;;;6156170;23;19905;-89
2023/09/13 03:15:43;;;;;;;;;;;;;;;;;;6181863;23;19909;-88
2023/09/13 03:18:09;;;;;;;;;;;;;;;;;;6156011;23;19947;-89
2023/09/13 03:20:35;;;;;;;;;;;;;;;;;;6155287;23;19908;-88
2023/09/13 03:23:01;;;;;;;;;;;;;;;;;;6182983;23;19931;-89
2023/09/13 03:25:27;;;;;;;;;;;;;;;;;;6157464;23;19991;-88
2023/09/13 03:27:53;;;;;;;;;;;;;;;;;;6155914;23;19932;-88
2023/09/13 03:30:18;;;;;;;;;;;;;;;;;;6156585;23;20030;-89
2023/09/13 03:32:44;;;;;;;;;;;;;;;;;;6155738;23;19918;-89
2023/09/13 03:35:10;;;;;;;;;;;;;;;;;;6156255;23;19912;-89
2023/09/13 03:37:39;;;;;;;;;;;;;;;;;;6159876;23;20184;-89
2023/09/13 03:40:05;;;;;;;;;;;;;;;;;;6156537;23;19905;-88
2023/09/13 03:42:31;;;;;;;;;;;;;;;;;;6182191;23;19970;-88
2023/09/13 03:44:57;;;;;;;;;;;;;;;;;;6155706;23;20289;-89
2023/09/13 03:47:23;;;;;;;;;;;;;;;;;;6154695;23;19934;-88
2023/09/13 03:49:49;;;;;;;;;;;;;;;;;;6153763;23;19955;-88
2023/09/13 03:52:15;;;;;;;;;;;;;;;;;;6153754;23;19917;-87
2023/09/13 03:54:41;;;;;;;;;;;;;;;;;;6154049;23;20338;-88
2023/09/13 03:57:07;;;;;;;;;;;;;;;;;;6154673;23;19905;-87
2023/09/13 03:59:33;;;;;;;;;;;;;;;;;;6153927;23;19908;-87
2023/09/13 04:01:59;;;;;;;;;;;;;;;;;;6181319;23;19908;-87
2023/09/13 04:04:25;;;;;;;;;;;;;;;;;;6180781;23;19908;-87
2023/09/13 04:06:51;;;;;;;;;;;;;;;;;;6155637;23;20374;-87
2023/09/13 04:09:18;;;;;;;;;;;;;;;;;;6154612;23;19916;-88
2023/09/13 04:11:43;;;;;;;;;;;;;;;;;;6155456;23;20327;-88
2023/09/13 04:14:09;;;;;;;;;;;;;;;;;;6154016;23;19912;-90
2023/09/13 04:16:35;;;;;;;;;;;;;;;;;;6155265;23;19904;-87
2023/09/13 04:19:01;;;;;;;;;;;;;;;;;;6180652;23;19915;-88
2023/09/13 04:21:28;;;;;;;;;;;;;;;;;;6154954;23;19909;-88
2023/09/13 04:23:54;;;;;;;;;;;;;;;;;;6153438;23;20002;-88
2023/09/13 04:26:23;;;;;;;;;;;;;;;;;;6155113;23;19944;-88
2023/09/13 04:28:49;;;;;;;;;;;;;;;;;;6181101;23;19987;-88
2023/09/13 04:31:14;;;;;;;;;;;;;;;;;;6154292;23;20415;-88
2023/09/13 04:33:40;;;;;;;;;;;;;;;;;;6154807;23;19995;-88
2023/09/13 04:36:06;;;;;;;;;;;;;;;;;;6154913;23;19987;-89
2023/09/13 04:38:32;;;;;;;;;;;;;;;;;;6183963;22;19994;-89
2023/09/13 04:40:58;;;;;;;;;;;;;;;;;;6155410;23;20397;-89
2023/09/13 04:43:24;;;;;;;;;;;;;;;;;;6155977;23;19916;-89
2023/09/13 04:45:50;;;;;;;;;;;;;;;;;;6182240;23;19912;-90
2023/09/13 04:48:16;;;;;;;;;;;;;;;;;;6155924;23;19939;-92
2023/09/13 04:50:42;;;;;;;;;;;;;;;;;;6157155;23;20310;-92
2023/09/13 04:53:08;;;;;;;;;;;;;;;;;;6182080;23;19904;-91
2023/09/13 04:55:34;;;;;;;;;;;;;;;;;;6155889;23;20000;-91
2023/09/13 04:58:00;;;;;;;;;;;;;;;;;;6155770;23;19915;-91
2023/09/13 05:00:26;;;;;;;;;;;;;;;;;;6156270;23;19983;-91
2023/09/13 05:02:52;;;;;;;;;;;;;;;;;;6155065;23;19904;-91
2023/09/13 05:05:18;;;;;;;;;;;;;;;;;;6156260;23;19908;-90
2023/09/13 05:07:44;;;;;;;;;;;;;;;;;;6156149;23;19904;-91
2023/09/13 05:10:11;;;;;;;;;;;;;;;;;;6156807;23;19912;-90
2023/09/13 05:12:37;;;;;;;;;;;;;;;;;;6154701;23;19915;-90
2023/09/13 05:15:06;;;;;;;;;;;;;;;;;;6156501;23;19912;-91
2023/09/13 05:17:32;;;;;;;;;;;;;;;;;;6155015;23;19905;-91
2023/09/13 05:19:58;;;;;;;;;;;;;;;;;;6156400;23;20344;-91
2023/09/13 05:22:27;;;;;;;;;;;;;;;;;;6155235;23;19927;-91
2023/09/13 05:24:52;;;;;;;;;;;;;;;;;;6156924;23;19912;-91
2023/09/13 05:27:18;;;;;;;;;;;;;;;;;;6155606;23;19908;-92
2023/09/13 05:29:44;;;;;;;;;;;;;;;;;;6156062;23;19979;-91
2023/09/13 05:32:10;;;;;;;;;;;;;;;;;;6155224;23;19982;-92
2023/09/13 05:34:36;;;;;;;;;;;;;;;;;;6155075;23;19912;-91
2023/09/13 05:37:02;;;;;;;;;;;;;;;;;;6184765;22;20500;-92
2023/09/13 05:39:28;;;;;;;;;;;;;;;;;;6155824;23;19915;-90
2023/09/13 05:41:55;;;;;;;;;;;;;;;;;;6155329;23;19904;-90
2023/09/13 05:44:23;;;;;;;;;;;;;;;;;;6155158;23;19904;-91
2023/09/13 05:46:49;;;;;;;;;;;;;;;;;;6155774;23;20323;-91
2023/09/13 05:49:17;;;;;;;;;;;;;;;;;;6155573;23;19910;-91
2023/09/13 05:51:45;;;;;;;;;;;;;;;;;;6155220;23;19930;-92
2023/09/13 05:54:11;;;;;;;;;;;;;;;;;;6156076;23;19909;-92
2023/09/13 05:56:37;;;;;;;;;;;;;;;;;;6154801;23;19911;-89
2023/09/13 05:59:03;;;;;;;;;;;;;;;;;;6180004;23;20398;-89
2023/09/13 06:01:32;;;;;;;;;;;;;;;;;;6154017;23;19904;-88
2023/09/13 06:03:58;;;;;;;;;;;;;;;;;;6154333;23;20382;-87
2023/09/13 06:06:24;;;;;;;;;;;;;;;;;;6153697;23;19932;-88
2023/09/13 06:08:49;;;;;;;;;;;;;;;;;;6155980;23;20041;-90
2023/09/13 06:11:17;;;;;;;;;;;;;;;;;;6156629;23;20311;-91
2023/09/13 06:13:43;;;;;;;;;;;;;;;;;;6154398;23;19908;-91
2023/09/13 06:16:09;;;;;;;;;;;;;;;;;;6155367;23;20039;-90
2023/09/13 06:18:35;;;;;;;;;;;;;;;;;;6155027;23;19916;-91
2023/09/13 06:21:03;;;;;;;;;;;;;;;;;;6155923;23;19908;-90
2023/09/13 06:23:29;;;;;;;;;;;;;;;;;;6155093;23;19909;-91
2023/09/13 06:25:55;;;;;;;;;;;;;;;;;;6155890;23;20381;-91
2023/09/13 06:28:21;;;;;;;;;;;;;;;;;;6155245;23;19913;-91
2023/09/13 06:30:47;;;;;;;;;;;;;;;;;;6155245;23;19963;-91
2023/09/13 06:33:14;;;;;;;;;;;;;;;;;;6154488;23;19908;-90
2023/09/13 06:35:40;;;;;;;;;;;;;;;;;;6155671;23;20618;-90
2023/09/13 06:38:05;;;;;;;;;;;;;;;;;;6157413;23;19920;-91
2023/09/13 06:40:33;;;;;;;;;;;;;;;;;;6154020;23;20365;-90
2023/09/13 06:43:00;;;;;;;;;;;;;;;;;;6156096;23;19920;-90
2023/09/13 06:45:25;;;;;;;;;;;;;;;;;;6154375;23;19908;-90
2023/09/13 06:47:58;;;;;;;;;;;;;;;;;;6154940;23;20244;-91
2023/09/13 06:50:24;;;;;;;;;;;;;;;;;;6154576;23;19983;-90
2023/09/13 06:52:50;;;;;;;;;;;;;;;;;;6154867;23;19927;-92
2023/09/13 06:55:16;;;;;;;;;;;;;;;;;;6154922;23;19991;-91
2023/09/13 06:57:48;;;;;;;;;;;;;;;;;;6153388;23;19987;-90
2023/09/13 07:00:14;;;;;;;;;;;;;;;;;;6155506;23;19909;-91
2023/09/13 07:02:40;;;;;;;;;;;;;;;;;;6153538;23;19908;-91
2023/09/13 07:05:06;;;;;;;;;;;;;;;;;;6155116;23;19966;-91
2023/09/13 07:07:40;;;;;;;;;;;;;;;;;;6154899;23;23254;-91
2023/09/13 07:10:07;;;;;;;;;;;;;;;;;;6155032;23;20397;-91
2023/09/13 07:12:33;;;;;;;;;;;;;;;;;;6155360;23;19939;-91
2023/09/13 07:14:59;;;;;;;;;;;;;;;;;;6154645;23;20355;-90
2023/09/13 07:17:25;;;;;;;;;;;;;;;;;;6153584;23;19915;-91
2023/09/13 07:19:51;;;;;;;;;;;;;;;;;;6154852;23;19908;-91
2023/09/13 07:22:17;;;;;;;;;;;;;;;;;;6154281;23;19904;-92
2023/09/13 07:24:43;;;;;;;;;;;;;;;;;;6156123;23;19942;-91
2023/09/13 07:27:09;;;;;;;;;;;;;;;;;;6154393;23;19987;-91
2023/09/13 07:29:35;;;;;;;;;;;;;;;;;;6181802;23;19909;-92
2023/09/13 07:32:02;;;;;;;;;;;;;;;;;;6153990;23;19932;-91
2023/09/13 07:34:29;;;;;;;;;;;;;;;;;;6155173;23;19912;-92
2023/09/13 07:36:55;;;;;;;;;;;;;;;;;;6155893;22;19908;-91
2023/09/13 07:39:20;;;;;;;;;;;;;;;;;;6154351;23;20039;-91
2023/09/13 07:41:46;;;;;;;;;;;;;;;;;;6155276;23;19905;-91
2023/09/13 07:44:12;;;;;;;;;;;;;;;;;;6180763;23;19914;-91
2023/09/13 07:46:38;;;;;;;;;;;;;;;;;;6155837;23;19930;-91
2023/09/13 07:49:04;;;;;;;;;;;;;;;;;;6155186;23;19939;-91
2023/09/13 07:51:30;;;;;;;;;;;;;;;;;;6180671;23;19904;-90
2023/09/13 07:53:57;;;;;;;;;;;;;;;;;;6155444;23;20356;-91
2023/09/13 07:56:25;;;;;;;;;;;;;;;;;;6152972;23;19912;-91
2023/09/13 07:58:51;;;;;;;;;;;;;;;;;;6153126;23;19991;-92
2023/09/13 08:01:17;;;;;;;;;;;;;;;;;;6153380;23;20062;-91
2023/09/13 08:03:43;;;;;;;;;;;;;;;;;;6156068;23;19915;-91
2023/09/13 08:06:09;;;;;;;;;;;;;;;;;;6182879;23;19918;-91
2023/09/13 08:08:35;;;;;;;;;;;;;;;;;;6156477;23;19995;-92
2023/09/13 08:11:00;;;;;;;;;;;;;;;;;;6155273;23;19916;-92
2023/09/13 08:13:26;;;;;;;;;;;;;;;;;;6156463;23;20027;-92
2023/09/13 08:15:52;;;;;;;;;;;;;;;;;;6157515;23;19909;-91
2023/09/13 08:18:18;;;;;;;;;;;;;;;;;;6157444;23;19908;-91
2023/09/13 08:20:44;;;;;;;;;;;;;;;;;;6157654;23;19904;-91
2023/09/13 08:23:10;;;;;;;;;;;;;;;;;;6157358;23;20338;-92
2023/09/13 08:25:39;;;;;;;;;;;;;;;;;;6156975;23;20026;-91
2023/09/13 08:28:05;;;;;;;;;;;;;;;;;;6155838;23;19932;-90
2023/09/13 08:30:31;;;;;;;;;;;;;;;;;;6157151;23;19919;-90
2023/09/13 08:32:57;;;;;;;;;;;;;;;;;;6155471;23;19915;-90
2023/09/13 08:35:23;;;;;;;;;;;;;;;;;;6156823;23;19908;-90
2023/09/13 08:37:55;;;;;;;;;;;;;;;;;;6161026;23;19919;-90
2023/09/13 08:40:21;;;;;;;;;;;;;;;;;;6156453;23;19971;-90
2023/09/13 08:42:47;;;;;;;;;;;;;;;;;;6156868;23;20394;-89
2023/09/13 08:45:13;;;;;;;;;;;;;;;;;;6156959;23;19912;-90
2023/09/13 08:47:42;;;;;;;;;;;;;;;;;;6157039;23;19935;-89
2023/09/13 08:50:08;;;;;;;;;;;;;;;;;;6182195;23;19932;-89
2023/09/13 08:52:35;;;;;;;;;;;;;;;;;;6157470;23;19931;-89
2023/09/13 08:55:01;;;;;;;;;;;;;;;;;;6182315;23;19927;-89
2023/09/13 08:57:28;;;;;;;;;;;;;;;;;;6184343;23;19912;-89
2023/09/13 08:59:54;;;;;;;;;;;;;;;;;;6157488;23;20326;-90
2023/09/13 09:02:20;;;;;;;;;;;;;;;;;;6158034;23;20463;-90
2023/09/13 09:04:46;;;;;;;;;;;;;;;;;;6158714;23;20347;-90
2023/09/13 09:07:12;;;;;;;;;;;;;;;;;;6159199;23;20353;-89
2023/09/13 09:09:38;;;;;;;;;;;;;;;;;;6157816;23;19979;-89
2023/09/13 09:12:04;;;;;;;;;;;;;;;;;;6157535;23;19939;-90
2023/09/13 09:14:30;;;;;;;;;;;;;;;;;;6157193;23;20306;-90
2023/09/13 09:16:55;;;;;;;;;;;;;;;;;;6157198;23;19908;-89
2023/09/13 09:19:21;;;;;;;;;;;;;;;;;;6158177;23;19915;-89
2023/09/13 09:21:47;;;;;;;;;;;;;;;;;;6157574;23;19936;-90
2023/09/13 09:24:13;;;;;;;;;;;;;;;;;;6184159;23;19905;-90
2023/09/13 09:26:39;;;;;;;;;;;;;;;;;;6158084;23;19908;-90
2023/09/13 09:29:05;;;;;;;;;;;;;;;;;;6158262;23;19909;-90
2023/09/13 09:31:32;;;;;;;;;;;;;;;;;;6158453;23;19912;-90
2023/09/13 09:33:58;;;;;;;;;;;;;;;;;;6155487;23;19905;-90
2023/09/13 09:36:26;;;;;;;;;;;;;;;;;;6155495;23;19978;-90
2023/09/13 09:38:52;;;;;;;;;;;;;;;;;;6184228;22;20338;-89
2023/09/13 09:41:17;;;;;;;;;;;;;;;;;;6155994;23;19911;-90
2023/09/13 09:43:44;;;;;;;;;;;;;;;;;;6155133;23;19991;-89
2023/09/13 09:46:10;;;;;;;;;;;;;;;;;;6155494;23;19909;-89
2023/09/13 09:48:36;;;;;;;;;;;;;;;;;;6155658;23;19987;-89
2023/09/13 09:51:02;;;;;;;;;;;;;;;;;;6156201;23;20339;-89
2023/09/13 09:53:30;;;;;;;;;;;;;;;;;;6155745;23;20349;-89
2023/09/13 09:55:56;;;;;;;;;;;;;;;;;;6155704;23;19919;-89
2023/09/13 09:58:21;;;;;;;;;;;;;;;;;;6156308;23;19908;-89
2023/09/13 10:00:47;;;;;;;;;;;;;;;;;;6155460;23;19908;-90
2023/09/13 10:03:17;;;;;;;;;;;;;;;;;;6155543;23;19915;-90
2023/09/13 10:05:43;;;;;;;;;;;;;;;;;;6156174;23;20006;-90
2023/09/13 10:08:09;;;;;;;;;;;;;;;;;;6155659;23;20387;-90
2023/09/13 10:10:35;;;;;;;;;;;;;;;;;;6155129;23;19908;-90
2023/09/13 10:13:01;;;;;;;;;;;;;;;;;;6155018;23;20310;-90
2023/09/13 10:15:27;;;;;;;;;;;;;;;;;;6154574;23;19940;-91
2023/09/13 10:17:53;;;;;;;;;;;;;;;;;;6155675;23;19911;-89
2023/09/13 10:20:20;;;;;;;;;;;;;;;;;;6153887;23;19955;-90
2023/09/13 10:22:46;;;;;;;;;;;;;;;;;;6156525;23;20319;-90
2023/09/13 10:25:12;;;;;;;;;;;;;;;;;;6155501;23;19958;-90
2023/09/13 10:27:39;;;;;;;;;;;;;;;;;;6156009;23;19935;-90
2023/09/13 10:30:05;;;;;;;;;;;;;;;;;;6155387;23;20007;-90
2023/09/13 10:32:31;;;;;;;;;;;;;;;;;;6155017;23;19939;-89
2023/09/13 10:34:58;;;;;;;;;;;;;;;;;;6154551;23;19912;-90
2023/09/13 10:37:24;;;;;;;;;;;;;;;;;;6156291;22;19939;-90
2023/09/13 10:39:50;;;;;;;;;;;;;;;;;;6183410;22;20247;-89
2023/09/13 10:42:16;;;;;;;;;;;;;;;;;;6155496;23;20319;-90
2023/09/13 10:44:42;;;;;;;;;;;;;;;;;;6156366;23;19911;-89
2023/09/13 10:47:08;;;;;;;;;;;;;;;;;;6154934;23;20238;-89
2023/09/13 10:49:34;;;;;;;;;;;;;;;;;;6154356;23;19931;-89
2023/09/13 10:52:03;;;;;;;;;;;;;;;;;;6154222;23;20231;-89
2023/09/13 10:54:29;;;;;;;;;;;;;;;;;;6153797;23;20284;-89
2023/09/13 10:56:54;;;;;;;;;;;;;;;;;;6180394;23;19939;-89
2023/09/13 10:59:22;;;;;;;;;;;;;;;;;;6153919;23;19975;-89
2023/09/13 11:01:48;;;;;;;;;;;;;;;;;;6153589;23;19916;-89
2023/09/13 11:04:14;;;;;;;;;;;;;;;;;;6153008;23;19908;-89
2023/09/13 11:06:40;;;;;;;;;;;;;;;;;;6153526;23;19908;-90
2023/09/13 11:09:05;;;;;;;;;;;;;;;;;;6179112;23;20024;-89
2023/09/13 11:11:31;;;;;;;;;;;;;;;;;;6153462;23;19919;-90
2023/09/13 11:13:58;;;;;;;;;;;;;;;;;;6178887;23;19928;-88
2023/09/13 11:16:23;;;;;;;;;;;;;;;;;;6153477;23;19963;-88
2023/09/13 11:18:49;;;;;;;;;;;;;;;;;;6152150;23;19908;-88
2023/09/13 11:21:15;;;;;;;;;;;;;;;;;;6154221;23;19905;-89
2023/09/13 11:23:41;;;;;;;;;;;;;;;;;;6179182;23;20368;-89
2023/09/13 11:26:10;;;;;;;;;;;;;;;;;;6153367;23;19962;-90
2023/09/13 11:28:35;;;;;;;;;;;;;;;;;;6153530;23;19915;-89
2023/09/13 11:31:04;;;;;;;;;;;;;;;;;;6152853;23;19909;-88
2023/09/13 11:33:30;;;;;;;;;;;;;;;;;;6180736;23;19955;-88
2023/09/13 11:35:59;;;;;;;;;;;;;;;;;;6181979;23;19912;-89
2023/09/13 11:38:25;;;;;;;;;;;;;;;;;;6157184;23;19947;-88
2023/09/13 11:40:51;;;;;;;;;;;;;;;;;;6157940;23;19908;-90
2023/09/13 11:43:17;;;;;;;;;;;;;;;;;;6158997;23;19911;-89
2023/09/13 11:45:43;;;;;;;;;;;;;;;;;;6158830;23;19923;-88
2023/09/13 11:48:09;;;;;;;;;;;;;;;;;;6157438;23;20345;-89
2023/09/13 11:50:35;;;;;;;;;;;;;;;;;;6157525;23;19915;-89
2023/09/13 11:53:01;;;;;;;;;;;;;;;;;;6157560;23;19987;-89
2023/09/13 11:55:27;;;;;;;;;;;;;;;;;;6183237;23;20685;-88
2023/09/13 11:57:53;;;;;;;;;;;;;;;;;;6189362;23;19935;-93
2023/09/13 12:00:31;;;;;;;;;;;;;;;;;;6166304;23;19920;-93
2023/09/13 12:02:57;;;;;;;;;;;;;;;;;;6168095;23;20198;-92
2023/09/13 12:05:24;;;;;;;;;;;;;;;;;;6196293;23;20308;-94
2023/09/13 12:07:50;;;;;;;;;;;;;;;;;;6167809;23;19904;-94
2023/09/13 12:10:16;;;;;;;;;;;;;;;;;;6169263;23;19908;-91
2023/09/13 12:12:42;;;;;;;;;;;;;;;;;;6165339;23;19996;-92
2023/09/13 12:15:08;;;;;;;;;;;;;;;;;;6163540;23;19909;-94
2023/09/13 12:17:34;;;;;;;;;;;;;;;;;;6167542;23;19904;-93
2023/09/13 12:20:00;;;;;;;;;;;;;;;;;;6171496;23;19905;-92
2023/09/13 12:22:26;;;;;;;;;;;;;;;;;;6168482;23;19914;-93
2023/09/13 12:24:52;;;;;;;;;;;;;;;;;;6169334;23;20517;-94
2023/09/13 12:27:18;;;;;;;;;;;;;;;;;;6167903;23;19976;-93
2023/09/13 12:29:44;;;;;;;;;;;;;;;;;;6170345;23;20228;-93
2023/09/13 12:32:10;;;;;;;;;;;;;;;;;;6170565;23;20315;-92
2023/09/13 12:34:36;;;;;;;;;;;;;;;;;;6169398;23;19912;-93
2023/09/13 12:37:03;;;;;;;;;;;;;;;;;;6170386;23;20377;-94
2023/09/13 12:39:29;;;;;;;;;;;;;;;;;;6173058;23;19923;-94
2023/09/13 12:42:01;;;;;;;;;;;;;;;;;;6167292;23;19908;-93
2023/09/13 12:44:27;;;;;;;;;;;;;;;;;;6165218;23;19908;-92
2023/09/13 12:46:53;;;;;;;;;;;;;;;;;;6164792;23;20357;-93
2023/09/13 12:49:19;;;;;;;;;;;;;;;;;;6163922;23;19914;-93
2023/09/13 12:51:48;;;;;;;;;;;;;;;;;;6162071;23;19910;-94
2023/09/13 12:54:14;;;;;;;;;;;;;;;;;;6163598;23;19904;-93
2023/09/13 12:56:40;;;;;;;;;;;;;;;;;;6161663;23;20346;-94
2023/09/13 12:59:06;;;;;;;;;;;;;;;;;;6163030;23;19911;-95
2023/09/13 13:01:32;;;;;;;;;;;;;;;;;;6162940;23;19971;-94
2023/09/13 13:03:58;;;;;;;;;;;;;;;;;;6162797;23;19904;-93
2023/09/13 13:06:27;;;;;;;;;;;;;;;;;;6162315;23;19908;-91
2023/09/13 13:08:53;;;;;;;;;;;;;;;;;;6162325;23;19975;-93
2023/09/13 13:11:19;;;;;;;;;;;;;;;;;;6190331;23;19908;-93
2023/09/13 13:13:45;;;;;;;;;;;;;;;;;;6190414;23;19924;-93
2023/09/13 13:16:11;;;;;;;;;;;;;;;;;;6167511;23;19931;-92
2023/09/13 13:18:37;;;;;;;;;;;;;;;;;;6169099;23;19905;-92
2023/09/13 13:21:03;;;;;;;;;;;;;;;;;;6170037;23;19956;-93
2023/09/13 13:23:29;;;;;;;;;;;;;;;;;;6165393;23;19904;-92
2023/09/13 13:25:55;;;;;;;;;;;;;;;;;;6163350;23;19905;-95
2023/09/13 13:28:21;;;;;;;;;;;;;;;;;;6161095;23;19912;-93
2023/09/13 13:30:47;;;;;;;;;;;;;;;;;;6167936;23;19920;-94
2023/09/13 13:33:13;;;;;;;;;;;;;;;;;;6167656;23;19942;-94
2023/09/13 13:35:43;;;;;;;;;;;;;;;;;;6164427;23;19912;-94
2023/09/13 13:38:09;;;;;;;;;;;;;;;;;;6168312;22;19919;-92
2023/09/13 13:40:35;;;;;;;;;;;;;;;;;;6163653;23;19916;-93
2023/09/13 13:43:01;;;;;;;;;;;;;;;;;;6163452;23;19939;-94
2023/09/13 13:45:27;;;;;;;;;;;;;;;;;;6164409;23;19967;-92
2023/09/13 13:47:53;;;;;;;;;;;;;;;;;;6162966;23;19916;-93
2023/09/13 13:50:19;;;;;;;;;;;;;;;;;;6165263;23;19908;-93
2023/09/13 13:52:45;;;;;;;;;;;;;;;;;;6170855;23;19959;-93
2023/09/13 13:55:11;;;;;;;;;;;;;;;;;;6168613;23;19955;-93
2023/09/13 13:57:38;;;;;;;;;;;;;;;;;;6170665;23;19905;-94
2023/09/13 14:00:04;;;;;;;;;;;;;;;;;;6173663;23;19928;-93
2023/09/13 14:02:36;;;;;;;;;;;;;;;;;;6173933;23;19908;-94
2023/09/13 14:05:03;;;;;;;;;;;;;;;;;;6171842;23;19999;-94
2023/09/13 14:07:29;;;;;;;;;;;;;;;;;;6172260;23;20266;-93
2023/09/13 14:09:59;;;;;;;;;;;;;;;;;;6169374;23;19908;-91
2023/09/13 14:12:24;;;;;;;;;;;;;;;;;;6167728;23;19915;-94
2023/09/13 14:14:50;;;;;;;;;;;;;;;;;;6162103;23;19912;-93
2023/09/13 14:17:16;;;;;;;;;;;;;;;;;;6160706;23;19905;-89
2023/09/13 14:19:42;;;;;;;;;;;;;;;;;;6158713;23;19908;-91
2023/09/13 14:22:10;;;;;;;;;;;;;;;;;;6158699;23;19954;-90
2023/09/13 14:24:35;;;;;;;;;;;;;;;;;;6159153;23;19928;-90
2023/09/13 14:27:01;;;;;;;;;;;;;;;;;;6158637;23;19913;-90
2023/09/13 14:29:27;;;;;;;;;;;;;;;;;;6159437;23;19905;-89
2023/09/13 14:32:00;;;;;;;;;;;;;;;;;;6162915;23;19904;-90
2023/09/13 14:34:26;;;;;;;;;;;;;;;;;;6166039;23;19918;-90
2023/09/13 14:36:59;;;;;;;;;;;;;;;;;;6162726;23;19912;-90
2023/09/13 14:39:25;;;;;;;;;;;;;;;;;;6164100;23;19947;-90
2023/09/13 14:42:02;;;;;;;;;;;;;;;;;;6168422;23;20331;-90
2023/09/13 14:44:28;;;;;;;;;;;;;;;;;;6162811;23;19963;-90
2023/09/13 14:46:54;;;;;;;;;;;;;;;;;;6164670;23;19904;-90
2023/09/13 14:49:20;;;;;;;;;;;;;;;;;;6162571;23;19904;-90
2023/09/13 14:51:47;;;;;;;;;;;;;;;;;;6162043;23;19908;-89
2023/09/13 14:54:13;;;;;;;;;;;;;;;;;;6166242;23;19915;-90
2023/09/13 14:56:39;;;;;;;;;;;;;;;;;;6162489;23;19904;-88
2023/09/13 14:59:05;;;;;;;;;;;;;;;;;;6165036;23;19910;-89
2023/09/13 15:01:31;;;;;;;;;;;;;;;;;;6158383;23;19939;-89
2023/09/13 15:03:58;;;;;;;;;;;;;;;;;;6158217;23;19908;-89
2023/09/13 15:06:24;;;;;;;;;;;;;;;;;;6181482;23;20259;-89
2023/09/13 15:08:50;;;;;;;;;;;;;;;;;;6155281;23;19908;-89
2023/09/13 15:11:16;;;;;;;;;;;;;;;;;;6155508;23;19911;-89
2023/09/13 15:13:45;;;;;;;;;;;;;;;;;;6154057;23;19904;-90
2023/09/13 15:16:13;;;;;;;;;;;;;;;;;;6155791;23;20584;-89
2023/09/13 15:18:39;;;;;;;;;;;;;;;;;;6156450;23;19904;-89
2023/09/13 15:21:05;;;;;;;;;;;;;;;;;;6163765;23;19905;-89
2023/09/13 15:23:32;;;;;;;;;;;;;;;;;;6194805;23;19910;-90
2023/09/13 15:25:58;;;;;;;;;;;;;;;;;;6170852;23;20313;-89
2023/09/13 15:28:25;;;;;;;;;;;;;;;;;;6185592;23;19904;-90
2023/09/13 15:30:51;;;;;;;;;;;;;;;;;;6154438;23;19943;-88
2023/09/13 15:33:17;;;;;;;;;;;;;;;;;;6152469;23;20357;-88
2023/09/13 15:35:43;;;;;;;;;;;;;;;;;;6153584;23;19935;-88
2023/09/13 15:38:09;;;;;;;;;;;;;;;;;;6153396;23;19908;-88
2023/09/13 15:40:35;;;;;;;;;;;;;;;;;;6154988;23;19917;-89
2023/09/13 15:43:01;;;;;;;;;;;;;;;;;;6153863;23;19983;-88
2023/09/13 15:45:27;;;;;;;;;;;;;;;;;;6153857;23;20361;-87
2023/09/13 15:47:53;;;;;;;;;;;;;;;;;;6153702;23;20235;-88
2023/09/13 15:50:19;;;;;;;;;;;;;;;;;;6154173;23;19904;-87
2023/09/13 15:52:45;;;;;;;;;;;;;;;;;;6154003;23;19904;-87
2023/09/13 15:55:11;;;;;;;;;;;;;;;;;;6179359;23;19920;-88
2023/09/13 15:57:37;;;;;;;;;;;;;;;;;;6154217;23;19963;-87
2023/09/13 16:00:03;;;;;;;;;;;;;;;;;;6151881;23;19915;-87
2023/09/13 16:02:30;;;;;;;;;;;;;;;;;;6151734;23;19908;-89
2023/09/13 16:04:56;;;;;;;;;;;;;;;;;;6179477;23;19912;-88
2023/09/13 16:07:22;;;;;;;;;;;;;;;;;;6179077;23;20331;-89
2023/09/13 16:09:48;;;;;;;;;;;;;;;;;;6180734;23;20007;-88
2023/09/13 16:12:14;;;;;;;;;;;;;;;;;;6153461;23;19904;-87
2023/09/13 16:14:40;;;;;;;;;;;;;;;;;;6152545;23;19928;-88
2023/09/13 16:17:07;;;;;;;;;;;;;;;;;;6151661;23;20338;-88
2023/09/13 16:19:33;;;;;;;;;;;;;;;;;;6154569;23;19988;-88
2023/09/13 16:21:58;;;;;;;;;;;;;;;;;;6154935;23;19951;-89
2023/09/13 16:24:24;;;;;;;;;;;;;;;;;;6155351;23;20389;-87
2023/09/13 16:26:50;;;;;;;;;;;;;;;;;;6154898;23;19963;-88
2023/09/13 16:29:17;;;;;;;;;;;;;;;;;;6154736;23;20003;-87
2023/09/13 16:31:42;;;;;;;;;;;;;;;;;;6153978;23;19915;-88
2023/09/13 16:34:08;;;;;;;;;;;;;;;;;;6154802;23;19904;-88
2023/09/13 16:36:34;;;;;;;;;;;;;;;;;;6152635;23;19912;-88
2023/09/13 16:39:20;;;;;;;;;;;;;;;;;;6156875;23;20162;-87
2023/09/13 16:41:55;;;;;;;;;;;;;;;;;;6156573;23;19939;-89
2023/09/13 16:44:31;;;;;;;;;;;;;;;;;;6150924;23;19913;-89
2023/09/13 16:46:57;;;;;;;;;;;;;;;;;;6153879;23;19936;-89
2023/09/13 16:49:25;;;;;;;;;;;;;;;;;;6181413;23;19912;-89
2023/09/13 16:51:51;;;;;;;;;;;;;;;;;;6154531;23;19908;-89
2023/09/13 16:54:16;;;;;;;;;;;;;;;;;;6156575;23;20397;-90
2023/09/13 16:56:43;;;;;;;;;;;;;;;;;;6155736;23;19935;-89
2023/09/13 16:59:09;;;;;;;;;;;;;;;;;;6155216;23;19912;-89
2023/09/13 17:01:35;;;;;;;;;;;;;;;;;;6155471;23;19912;-91
2023/09/13 17:04:01;;;;;;;;;;;;;;;;;;6154594;23;19991;-91
2023/09/13 17:06:27;;;;;;;;;;;;;;;;;;6155767;23;19909;-90
2023/09/13 17:08:53;;;;;;;;;;;;;;;;;;6155333;23;19935;-91
2023/09/13 17:11:19;;;;;;;;;;;;;;;;;;6155963;23;19904;-90
2023/09/13 17:13:47;;;;;;;;;;;;;;;;;;6153228;23;19911;-90
2023/09/13 17:16:13;;;;;;;;;;;;;;;;;;6155772;23;19910;-90